createdAt,value
2019-05-16T00:01:09.845Z,28.30
2019-05-16T00:03:41.143Z,27.77
2019-05-16T00:06:12.837Z,24.77
2019-05-16T00:08:44.159Z,26.60
2019-05-16T00:11:17.786Z,33.97
2019-05-16T00:13:49.046Z,26.57
2019-05-16T00:16:20.638Z,27.90
2019-05-16T00:18:51.963Z,31.70
2019-05-16T00:21:23.547Z,29.67
2019-05-16T00:23:54.929Z,24.93
2019-05-16T00:26:28.194Z,33.50
2019-05-16T00:28:59.337Z,30.03
2019-05-16T00:31:30.669Z,29.27
2019-05-16T00:34:01.998Z,30.70
2019-05-16T00:36:33.373Z,28.30
2019-05-16T00:39:08.214Z,23.93
2019-05-16T00:41:38.990Z,29.10
2019-05-16T00:44:10.382Z,30.80
2019-05-16T00:46:41.702Z,36.43
2019-05-16T00:49:13.193Z,33.70
2019-05-16T00:51:44.722Z,24.97
2019-05-16T00:54:18.446Z,24.50
2019-05-16T00:56:49.098Z,29.40
2019-05-16T00:59:20.936Z,26.93
2019-05-16T01:01:52.290Z,30.37
2019-05-16T01:04:23.662Z,26.03
2019-05-16T01:06:55.083Z,29.13
2019-05-16T01:09:28.254Z,26.53
2019-05-16T01:11:59.944Z,29.37
2019-05-16T01:14:31.535Z,32.57
2019-05-16T01:17:02.862Z,31.37
2019-05-16T01:19:34.163Z,30.30
2019-05-16T01:22:08.295Z,33.27
2019-05-16T01:24:41.537Z,31.97
2019-05-16T01:27:12.752Z,36.47
2019-05-16T01:29:47.606Z,29.83
2019-05-16T01:32:19.150Z,33.17
2019-05-16T01:34:50.476Z,33.93
2019-05-16T01:37:21.857Z,36.60
2019-05-16T01:39:53.511Z,33.83
2019-05-16T01:42:24.846Z,32.53
2019-05-16T01:44:57.869Z,32.20
2019-05-16T01:47:31.073Z,32.63
2019-05-16T01:50:02.499Z,35.40
2019-05-16T01:52:33.845Z,31.63
2019-05-16T01:55:05.396Z,30.77
2019-05-16T01:57:38.847Z,30.10
2019-05-16T02:00:12.753Z,31.40
2019-05-16T02:02:44.214Z,26.27
2019-05-16T02:05:15.714Z,31.63
2019-05-16T02:07:48.015Z,33.00
2019-05-16T02:10:19.732Z,35.33
2019-05-16T02:12:51.259Z,45.93
2019-05-16T02:15:22.669Z,35.07
2019-05-16T02:17:55.077Z,36.87
2019-05-16T02:20:28.302Z,32.27
2019-05-16T02:22:59.651Z,37.00
2019-05-16T02:25:31.003Z,35.63
2019-05-16T02:28:02.369Z,31.10
2019-05-16T02:30:33.805Z,33.33
2019-05-16T02:33:05.354Z,33.10
2019-05-16T02:35:36.859Z,33.30
2019-05-16T02:38:11.176Z,33.83
2019-05-16T02:40:43.278Z,38.67
2019-05-16T02:43:16.326Z,31.87
2019-05-16T02:45:47.788Z,39.03
2019-05-16T02:48:21.553Z,45.53
2019-05-16T02:50:53.175Z,34.93
2019-05-16T02:53:24.619Z,35.20
2019-05-16T02:55:55.999Z,32.97
2019-05-16T02:58:30.499Z,31.67
2019-05-16T03:01:01.795Z,33.73
2019-05-16T03:03:33.588Z,34.30
2019-05-16T03:06:04.969Z,34.47
2019-05-16T03:08:40.969Z,31.90
2019-05-16T03:11:11.854Z,33.60
2019-05-16T03:13:45.334Z,35.03
2019-05-16T03:16:17.008Z,31.40
2019-05-16T03:18:51.593Z,34.97
2019-05-16T03:21:24.628Z,34.90
2019-05-16T03:24:00.625Z,35.17
2019-05-16T03:26:31.591Z,34.20
2019-05-16T03:29:04.685Z,36.10
2019-05-16T03:31:36.113Z,38.93
2019-05-16T03:34:08.149Z,43.93
2019-05-16T03:36:44.056Z,38.80
2019-05-16T03:39:15.070Z,46.60
2019-05-16T03:41:50.691Z,35.87
2019-05-16T03:44:21.265Z,40.43
2019-05-16T03:46:52.519Z,37.43
2019-05-16T03:49:23.807Z,36.70
2019-05-16T03:51:55.150Z,34.67
2019-05-16T03:54:26.606Z,38.90
2019-05-16T03:57:00.283Z,35.63
2019-05-16T03:59:31.636Z,40.93
2019-05-16T04:02:03.076Z,39.90
2019-05-16T04:04:34.349Z,37.33
2019-05-16T04:07:05.794Z,36.87
2019-05-16T04:09:40.876Z,42.70
2019-05-16T04:12:10.885Z,36.47
2019-05-16T04:14:42.392Z,36.57
2019-05-16T04:17:13.778Z,33.90
2019-05-16T04:19:45.095Z,34.90
2019-05-16T04:22:16.677Z,32.90
2019-05-16T04:24:51.001Z,38.77
2019-05-16T04:27:22.723Z,36.00
2019-05-16T04:29:54.125Z,39.13
2019-05-16T04:32:25.449Z,31.67
2019-05-16T04:34:56.761Z,31.17
2019-05-16T04:37:31.394Z,31.70
2019-05-16T04:40:02.919Z,32.07
2019-05-16T04:42:34.290Z,32.10
2019-05-16T04:45:05.938Z,32.00
2019-05-16T04:47:41.074Z,30.23
2019-05-16T04:50:11.853Z,28.80
2019-05-16T04:52:43.591Z,31.07
2019-05-16T04:55:14.870Z,30.90
2019-05-16T04:57:46.207Z,29.77
2019-05-16T05:00:21.145Z,33.33
2019-05-16T05:02:52.017Z,30.80
2019-05-16T05:05:23.786Z,30.50
2019-05-16T05:07:55.208Z,25.87
2019-05-16T05:10:26.548Z,24.60
2019-05-16T05:12:57.849Z,28.17
2019-05-16T05:15:30.646Z,27.17
2019-05-16T05:18:40.946Z,25.97
2019-05-16T05:21:13.138Z,23.50
2019-05-16T05:23:44.579Z,24.03
2019-05-16T05:26:15.929Z,27.00
2019-05-16T05:28:47.256Z,33.50
2019-05-16T05:31:23.853Z,24.90
2019-05-16T05:33:51.638Z,26.40
2019-05-16T05:36:23.014Z,25.70
2019-05-16T05:39:07.935Z,23.67
2019-05-16T05:41:27.517Z,26.37
2019-05-16T05:43:59.834Z,25.37
2019-05-16T05:46:31.801Z,26.17
2019-05-16T05:49:03.205Z,25.53
2019-05-16T05:51:34.860Z,24.17
2019-05-16T05:54:06.221Z,22.97
2019-05-16T05:56:39.683Z,30.60
2019-05-16T05:59:11.348Z,23.20
2019-05-16T06:01:43.073Z,21.47
2019-05-16T06:04:14.552Z,22.83
2019-05-16T06:06:45.950Z,21.00
2019-05-16T06:09:26.220Z,23.33
2019-05-16T06:11:50.477Z,22.00
2019-05-16T06:14:21.851Z,20.40
2019-05-16T06:16:53.226Z,19.87
2019-05-16T06:19:24.615Z,19.73
2019-05-16T06:21:56.118Z,26.80
2019-05-16T06:24:27.437Z,22.57
2019-05-16T06:27:00.905Z,23.70
2019-05-16T06:29:32.033Z,24.00
2019-05-16T06:32:03.429Z,22.47
2019-05-16T06:34:34.854Z,22.47
2019-05-16T06:37:06.306Z,23.27
2019-05-16T06:39:42.767Z,21.37
2019-05-16T06:42:10.696Z,24.93
2019-05-16T06:44:42.091Z,22.70
2019-05-16T06:47:19.769Z,22.37
2019-05-16T06:49:46.435Z,37.57
2019-05-16T06:52:19.694Z,22.20
2019-05-16T06:54:53.729Z,19.50
2019-05-16T06:57:24.089Z,22.47
2019-05-16T06:59:55.433Z,18.50
2019-05-16T07:02:30.840Z,21.90
2019-05-16T07:05:01.091Z,20.40
2019-05-16T07:07:32.949Z,25.20
2019-05-16T07:10:05.244Z,19.67
2019-05-16T07:12:36.647Z,18.10
2019-05-16T07:15:12.435Z,20.00
2019-05-16T07:17:41.824Z,16.87
2019-05-16T07:20:14.489Z,19.17
2019-05-16T07:22:46.686Z,18.57
2019-05-16T07:25:20.596Z,18.57
2019-05-16T07:27:51.445Z,17.60
2019-05-16T07:30:23.075Z,16.90
2019-05-16T07:32:54.525Z,18.37
2019-05-16T07:35:25.892Z,19.77
2019-05-16T07:37:57.359Z,16.87
2019-05-16T07:40:30.814Z,18.83
2019-05-16T07:43:01.935Z,17.43
2019-05-16T07:45:33.292Z,18.60
2019-05-16T07:48:04.960Z,18.57
2019-05-16T07:50:36.327Z,15.17
2019-05-16T07:53:10.500Z,14.40
2019-05-16T07:55:42.363Z,20.13
2019-05-16T07:58:13.843Z,14.90
2019-05-16T08:00:52.428Z,15.17
2019-05-16T08:03:19.976Z,13.07
2019-05-16T08:05:52.238Z,12.57
2019-05-16T08:08:24.596Z,11.90
2019-05-16T08:10:56.994Z,10.77
2019-05-16T08:13:30.880Z,10.40
2019-05-16T08:16:02.776Z,10.67
2019-05-16T08:18:34.365Z,9.90
2019-05-16T08:21:05.761Z,11.30
2019-05-16T08:23:41.123Z,10.83
2019-05-16T08:26:12.754Z,14.47
2019-05-16T08:28:44.160Z,11.20
2019-05-16T08:31:17.255Z,10.07
2019-05-16T08:36:23.475Z,9.70
2019-05-16T08:38:54.810Z,9.73
2019-05-16T08:41:26.164Z,10.30
2019-05-16T08:44:00.919Z,12.23
2019-05-16T08:46:32.237Z,10.80
2019-05-16T08:49:03.685Z,10.40
2019-05-16T08:51:35.008Z,9.97
2019-05-16T08:54:06.352Z,10.13
2019-05-16T08:56:43.733Z,10.90
2019-05-16T08:59:13.491Z,11.27
2019-05-16T09:04:17.136Z,11.30
2019-05-16T09:06:52.352Z,9.83
2019-05-16T09:09:39.787Z,11.50
2019-05-16T09:10:30.560Z,9.83
2019-05-16T09:10:31.976Z,9.87
2019-05-16T09:11:57.424Z,9.93
2019-05-16T09:14:31.901Z,10.73
2019-05-16T09:17:00.919Z,10.40
2019-05-16T09:19:32.200Z,9.00
2019-05-16T09:22:03.806Z,9.27
2019-05-16T09:24:37.757Z,9.03
2019-05-16T09:27:12.511Z,11.40
2019-05-16T09:29:41.823Z,9.50
2019-05-16T09:32:22.233Z,9.50
2019-05-16T09:34:47.920Z,9.60
2019-05-16T09:37:19.567Z,11.37
2019-05-16T09:39:50.865Z,11.90
2019-05-16T09:42:22.141Z,15.87
2019-05-16T09:44:53.729Z,17.63
2019-05-16T09:47:27.933Z,12.10
2019-05-16T09:49:58.274Z,13.13
2019-05-16T09:52:29.683Z,13.20
2019-05-16T09:55:01.377Z,14.23
2019-05-16T09:57:33.335Z,14.90
2019-05-16T10:00:06.742Z,15.70
2019-05-16T10:02:38.356Z,16.90
2019-05-16T10:05:13.167Z,15.23
2019-05-16T10:07:43.033Z,16.07
2019-05-16T10:10:16.911Z,14.40
2019-05-16T10:12:48.019Z,16.90
2019-05-16T10:15:19.837Z,16.80
2019-05-16T10:17:51.148Z,16.83
2019-05-16T10:20:22.652Z,18.63
2019-05-16T10:22:54.033Z,17.43
2019-05-16T10:25:27.674Z,16.17
2019-05-16T10:27:58.532Z,19.57
2019-05-16T10:30:30.019Z,18.10
2019-05-16T10:33:01.493Z,15.97
2019-05-16T10:35:32.787Z,14.00
2019-05-16T10:38:04.084Z,13.23
2019-05-16T10:40:36.881Z,13.47
2019-05-16T10:43:08.423Z,14.10
2019-05-16T10:45:39.828Z,10.23
2019-05-16T10:48:27.063Z,10.23
2019-05-16T10:51:04.309Z,10.37
2019-05-16T10:54:01.086Z,11.20
2019-05-16T10:56:08.691Z,11.33
2019-05-16T10:58:59.628Z,11.60
2019-05-16T11:01:26.931Z,10.50
2019-05-16T11:03:49.193Z,10.07
2019-05-16T11:06:25.787Z,7.93
2019-05-16T11:08:53.809Z,10.33
2019-05-16T11:11:27.400Z,10.53
2019-05-16T11:13:58.194Z,7.87
2019-05-16T11:16:29.651Z,5.50
2019-05-16T11:19:14.106Z,4.67
2019-05-16T11:21:33.917Z,4.93
2019-05-16T11:24:11.717Z,5.97
2019-05-16T11:26:38.481Z,6.23
2019-05-16T11:29:09.879Z,6.83
2019-05-16T11:31:41.142Z,7.63
2019-05-16T11:34:12.487Z,7.63
2019-05-16T11:36:43.741Z,8.20
2019-05-16T11:39:17.267Z,5.70
2019-05-16T11:41:48.291Z,6.10
2019-05-16T11:44:19.644Z,5.63
2019-05-16T11:46:50.992Z,6.53
2019-05-16T11:49:22.308Z,5.57
2019-05-16T11:51:53.728Z,5.17
2019-05-16T11:54:26.594Z,6.40
2019-05-16T11:56:57.926Z,7.70
2019-05-16T11:59:29.223Z,6.90
2019-05-16T12:02:00.669Z,8.30
2019-05-16T12:04:31.971Z,7.00
2019-05-16T12:07:03.310Z,7.13
2019-05-16T12:09:46.376Z,6.70
2019-05-16T12:12:08.781Z,4.97
2019-05-16T12:14:40.370Z,5.73
2019-05-16T12:17:11.738Z,5.27
2019-05-16T12:19:47.052Z,4.80
2019-05-16T12:22:18.353Z,5.80
2019-05-16T12:24:49.825Z,4.37
2019-05-16T12:27:21.271Z,4.37
2019-05-16T12:29:55.532Z,4.80
2019-05-16T12:32:27.555Z,4.50
2019-05-16T12:34:58.586Z,5.10
2019-05-16T12:37:29.968Z,5.90
2019-05-16T12:40:01.593Z,9.17
2019-05-16T12:42:32.916Z,5.80
2019-05-16T12:45:04.383Z,4.67
2019-05-16T12:47:37.500Z,4.50
2019-05-16T12:50:09.653Z,5.10
2019-05-16T12:52:41.158Z,5.83
2019-05-16T12:55:12.693Z,4.53
2019-05-16T12:57:48.924Z,3.77
2019-05-16T13:00:19.357Z,3.93
2019-05-16T13:02:50.714Z,4.00
2019-05-16T13:05:22.227Z,4.40
2019-05-16T13:07:53.627Z,4.27
2019-05-16T13:10:27.037Z,4.23
2019-05-16T13:12:58.155Z,4.43
2019-05-16T13:15:29.480Z,3.90
2019-05-16T13:18:02.556Z,3.47
2019-05-16T13:20:34.417Z,3.60
2019-05-16T13:23:13.870Z,3.53
2019-05-16T13:25:38.914Z,3.30
2019-05-16T13:28:10.173Z,3.20
2019-05-16T13:30:41.498Z,3.07
2019-05-16T13:33:12.897Z,3.80
2019-05-16T13:35:46.970Z,3.83
2019-05-16T13:38:17.704Z,3.33
2019-05-16T13:40:49.134Z,3.50
2019-05-16T13:43:20.506Z,3.27
2019-05-16T13:45:51.853Z,7.97
2019-05-16T13:48:23.191Z,2.93
2019-05-16T13:51:08.421Z,2.90
2019-05-16T13:53:28.341Z,3.17
2019-05-16T13:55:59.704Z,2.87
2019-05-16T13:58:30.993Z,2.87
2019-05-16T14:01:02.243Z,3.13
2019-05-16T14:03:33.743Z,2.87
2019-05-16T14:06:07.228Z,2.53
2019-05-16T14:08:38.295Z,2.80
2019-05-16T14:11:10.822Z,5.00
2019-05-16T14:13:42.247Z,3.70
2019-05-16T14:16:13.524Z,3.50
2019-05-16T14:18:46.850Z,3.70
2019-05-16T14:21:18.375Z,4.00
2019-05-16T14:23:53.374Z,3.53
2019-05-16T14:26:22.916Z,3.17
2019-05-16T14:28:57.337Z,3.63
2019-05-16T14:31:27.607Z,3.37
2019-05-16T14:33:58.956Z,3.00
2019-05-16T14:36:30.283Z,2.30
2019-05-16T14:39:01.804Z,2.70
2019-05-16T14:41:33.135Z,2.50
2019-05-16T14:44:04.433Z,4.50
2019-05-16T14:46:38.367Z,4.50
2019-05-16T14:49:09.048Z,2.53
2019-05-16T14:51:40.387Z,8.87
2019-05-16T14:54:11.876Z,2.47
2019-05-16T14:56:43.198Z,3.63
2019-05-16T14:59:14.498Z,3.73
2019-05-16T15:01:47.280Z,3.67
2019-05-16T15:04:18.823Z,4.97
2019-05-16T15:06:50.076Z,3.27
2019-05-16T15:09:27.345Z,2.50
2019-05-16T15:11:58.662Z,3.20
2019-05-16T15:14:30.110Z,7.50
2019-05-16T15:17:11.191Z,3.00
2019-05-16T15:19:42.492Z,3.03
2019-05-16T15:22:16.780Z,4.03
2019-05-16T15:24:48.481Z,3.10
2019-05-16T15:27:29.306Z,3.13
2019-05-16T15:30:00.602Z,3.80
2019-05-16T15:32:32.039Z,4.10
2019-05-16T15:35:03.364Z,3.10
2019-05-16T15:37:37.306Z,4.40
2019-05-16T15:40:10.177Z,3.43
2019-05-16T15:42:41.625Z,3.70
2019-05-16T15:45:13.438Z,4.50
2019-05-16T15:47:44.861Z,3.47
2019-05-16T15:50:18.222Z,3.97
2019-05-16T15:52:49.634Z,3.03
2019-05-16T15:55:30.303Z,3.80
2019-05-16T15:58:01.986Z,4.00
2019-05-16T16:00:41.853Z,5.30
2019-05-16T16:03:27.150Z,3.47
2019-05-16T16:05:58.774Z,2.70
2019-05-16T16:08:30.415Z,4.90
2019-05-16T16:11:01.877Z,5.20
2019-05-16T16:13:40.931Z,5.10
2019-05-16T16:16:17.271Z,5.60
2019-05-16T16:18:48.402Z,4.60
2019-05-16T16:21:19.795Z,10.10
2019-05-16T16:23:51.251Z,6.50
2019-05-16T16:26:22.561Z,6.30
2019-05-16T16:28:53.815Z,5.80
2019-05-16T16:31:27.270Z,5.30
2019-05-16T16:33:58.357Z,5.27
2019-05-16T16:36:29.821Z,5.60
2019-05-16T16:39:01.350Z,6.30
2019-05-16T16:41:32.767Z,4.53
2019-05-16T16:44:04.126Z,5.80
2019-05-16T16:46:37.621Z,5.43
2019-05-16T16:49:08.679Z,4.47
2019-05-16T16:51:40.237Z,6.27
2019-05-16T16:54:11.827Z,5.90
2019-05-16T16:56:43.215Z,5.10
2019-05-16T16:59:17.092Z,5.60
2019-05-16T17:01:48.088Z,5.10
2019-05-16T17:04:19.434Z,5.23
2019-05-16T17:06:51.047Z,5.37
2019-05-16T17:09:22.387Z,5.43
2019-05-16T17:11:53.909Z,4.93
2019-05-16T17:14:26.332Z,5.67
2019-05-16T17:16:57.696Z,6.20
2019-05-16T17:19:29.031Z,4.43
2019-05-16T17:22:13.492Z,5.03
2019-05-16T17:24:36.602Z,5.30
2019-05-16T17:27:08.316Z,5.13
2019-05-16T17:29:42.233Z,4.77
2019-05-16T17:32:13.685Z,5.13
2019-05-16T17:34:44.968Z,5.77
2019-05-16T17:37:17.152Z,6.07
2019-05-16T17:39:48.620Z,5.37
2019-05-16T17:42:20.001Z,6.40
2019-05-16T17:44:51.402Z,5.07
2019-05-16T17:47:23.710Z,7.73
2019-05-16T17:49:55.189Z,5.50
2019-05-16T17:52:27.346Z,6.37
2019-05-16T17:54:58.816Z,6.00
2019-05-16T17:57:33.626Z,6.20
2019-05-16T18:00:07.083Z,5.43
2019-05-16T18:02:38.778Z,5.40
2019-05-16T18:05:10.458Z,5.90
2019-05-16T18:07:42.105Z,6.80
2019-05-16T18:10:18.491Z,6.23
2019-05-16T18:12:50.061Z,6.30
2019-05-16T18:15:23.724Z,6.73
2019-05-16T18:17:58.240Z,7.70
2019-05-16T18:20:30.124Z,5.87
2019-05-16T18:23:01.515Z,6.40
2019-05-16T18:25:33.228Z,7.60
2019-05-16T18:28:07.446Z,7.50
2019-05-16T18:30:37.833Z,6.63
2019-05-16T18:33:12.189Z,5.73
2019-05-16T18:35:43.628Z,5.73
2019-05-16T18:38:15.098Z,10.17
2019-05-16T18:40:47.382Z,6.37
2019-05-16T18:43:21.316Z,6.37
2019-05-16T18:45:51.921Z,6.07
2019-05-16T18:48:23.213Z,14.83
2019-05-16T18:50:57.125Z,7.87
2019-05-16T18:53:27.667Z,5.93
2019-05-16T18:55:59.004Z,5.47
2019-05-16T18:58:30.378Z,6.30
2019-05-16T19:01:01.870Z,4.53
2019-05-16T19:03:33.456Z,7.77
2019-05-16T19:06:07.557Z,7.37
2019-05-16T19:08:38.017Z,6.63
2019-05-16T19:11:09.641Z,6.73
2019-05-16T19:13:41.035Z,5.70
2019-05-16T19:16:12.440Z,8.43
2019-05-16T19:18:43.725Z,6.23
2019-05-16T19:21:16.847Z,6.17
2019-05-16T19:23:48.335Z,5.83
2019-05-16T19:26:19.697Z,6.70
2019-05-16T19:28:51.148Z,7.23
2019-05-16T19:31:22.690Z,6.40
2019-05-16T19:33:56.840Z,6.93
2019-05-16T19:36:28.269Z,7.13
2019-05-16T19:38:59.867Z,7.00
2019-05-16T19:41:31.122Z,7.07
2019-05-16T19:44:02.729Z,6.40
2019-05-16T19:46:34.029Z,6.60
2019-05-16T19:49:06.490Z,6.77
2019-05-16T19:51:37.803Z,6.30
2019-05-16T19:54:10.680Z,5.97
2019-05-16T19:56:42.389Z,6.40
2019-05-16T19:59:13.869Z,6.70
2019-05-16T20:01:48.388Z,8.73
2019-05-16T20:04:19.805Z,6.00
2019-05-16T20:06:51.506Z,6.73
2019-05-16T20:09:27.138Z,9.80
2019-05-16T20:11:58.314Z,6.47
2019-05-16T20:14:29.782Z,11.83
2019-05-16T20:17:01.214Z,7.87
2019-05-16T20:19:32.607Z,7.60
2019-05-16T20:22:07.512Z,7.53
2019-05-16T20:24:38.698Z,7.50
2019-05-16T20:27:11.800Z,7.80
2019-05-16T20:29:43.190Z,6.77
2019-05-16T20:32:16.742Z,7.73
2019-05-16T20:34:47.858Z,6.57
2019-05-16T20:37:19.395Z,7.77
2019-05-16T20:39:50.721Z,7.57
2019-05-16T20:42:22.278Z,7.50
2019-05-16T20:44:53.564Z,7.07
2019-05-16T20:47:27.051Z,16.80
2019-05-16T20:49:58.069Z,7.07
2019-05-16T20:52:29.424Z,7.47
2019-05-16T20:55:00.752Z,7.83
2019-05-16T20:57:32.311Z,7.57
2019-05-16T21:00:04.062Z,8.87
2019-05-16T21:02:37.613Z,8.60
2019-05-16T21:05:09.176Z,8.87
2019-05-16T21:07:40.587Z,15.53
2019-05-16T21:10:12.685Z,9.53
2019-05-16T21:12:46.821Z,8.73
2019-05-16T21:15:18.882Z,8.73
2019-05-16T21:17:50.218Z,8.53
2019-05-16T21:20:21.494Z,8.53
2019-05-16T21:22:52.869Z,8.03
2019-05-16T21:25:26.417Z,8.13
2019-05-16T21:27:57.804Z,8.80
2019-05-16T21:30:30.068Z,11.20
2019-05-16T21:33:01.821Z,10.67
2019-05-16T21:35:33.249Z,9.60
2019-05-16T21:38:08.588Z,10.30
2019-05-16T21:40:38.153Z,9.20
2019-05-16T21:43:10.240Z,8.70
2019-05-16T21:45:41.944Z,12.30
2019-05-16T21:48:13.391Z,9.63
2019-05-16T21:50:46.316Z,9.93
2019-05-16T21:53:17.886Z,8.97
2019-05-16T21:55:49.183Z,9.50
2019-05-16T21:58:20.464Z,9.30
2019-05-16T22:00:56.708Z,9.60
2019-05-16T22:03:28.237Z,8.37
2019-05-16T22:05:59.866Z,9.20
2019-05-16T22:08:31.304Z,9.40
2019-05-16T22:11:02.784Z,11.50
2019-05-16T22:13:37.792Z,10.43
2019-05-16T22:16:11.473Z,9.80
2019-05-16T22:18:42.815Z,9.70
2019-05-16T22:21:16.355Z,10.00
2019-05-16T22:23:47.287Z,9.87
2019-05-16T22:26:18.552Z,9.10
2019-05-16T22:28:49.906Z,10.10
2019-05-16T22:31:21.268Z,10.33
2019-05-16T22:33:52.904Z,11.80
2019-05-16T22:36:26.607Z,9.40
2019-05-16T22:38:59.638Z,10.60
2019-05-16T22:41:31.293Z,10.43
2019-05-16T22:44:02.651Z,11.03
2019-05-16T22:46:33.955Z,14.97
2019-05-16T22:49:07.439Z,13.00
2019-05-16T22:51:38.412Z,14.40
2019-05-16T22:54:09.739Z,10.53
2019-05-16T22:56:41.248Z,10.30
2019-05-16T22:59:12.711Z,12.50
2019-05-16T23:01:44.237Z,10.37
2019-05-16T23:04:16.780Z,11.33
2019-05-16T23:06:48.209Z,10.07
2019-05-16T23:09:19.487Z,10.67
2019-05-16T23:11:50.863Z,10.40
2019-05-16T23:14:22.143Z,11.03
2019-05-16T23:16:53.662Z,10.83
2019-05-16T23:19:26.463Z,10.43
2019-05-16T23:21:57.905Z,10.27
2019-05-16T23:24:29.276Z,10.50
2019-05-16T23:27:02.197Z,10.50
2019-05-16T23:29:33.632Z,11.73
2019-05-16T23:32:07.178Z,12.70
2019-05-16T23:34:38.106Z,9.70
2019-05-16T23:37:09.648Z,9.80
2019-05-16T23:39:41.047Z,11.60
2019-05-16T23:42:12.500Z,11.60
2019-05-16T23:44:43.999Z,10.00
2019-05-16T23:47:16.512Z,17.90
2019-05-16T23:49:47.856Z,11.60
2019-05-16T23:52:19.123Z,10.50
2019-05-16T23:54:51.611Z,11.20
2019-05-16T23:57:22.964Z,10.87
2019-05-16T23:59:56.618Z,12.13
